createdAt,value
2022-10-06T00:01:03.069Z,23.90
2022-10-06T00:06:06.366Z,23.90
2022-10-06T00:11:11.097Z,23.90
2022-10-06T00:16:15.059Z,23.80
2022-10-06T00:21:17.800Z,23.90
2022-10-06T00:26:21.919Z,23.90
2022-10-06T00:31:24.586Z,24.00
2022-10-06T00:36:28.244Z,23.90
2022-10-06T00:41:32.302Z,23.90
2022-10-06T00:46:37.140Z,23.80
2022-10-06T00:51:41.659Z,23.90
2022-10-06T00:56:45.953Z,23.80
2022-10-06T01:01:52.462Z,23.70
2022-10-06T01:06:55.861Z,23.80
2022-10-06T01:12:01.227Z,23.80
2022-10-06T01:17:07.627Z,23.80
2022-10-06T01:22:11.855Z,23.80
2022-10-06T01:27:16.816Z,23.80
2022-10-06T01:32:19.560Z,23.80
2022-10-06T01:37:22.202Z,23.90
2022-10-06T01:42:26.264Z,23.90
2022-10-06T01:47:28.922Z,23.80
2022-10-06T01:52:31.507Z,23.70
2022-10-06T01:57:40.595Z,23.70
2022-10-06T02:02:43.349Z,23.80
2022-10-06T02:07:45.940Z,23.70
2022-10-06T02:12:52.106Z,23.80
2022-10-06T02:17:55.577Z,23.70
2022-10-06T02:22:58.295Z,23.70
2022-10-06T02:28:02.325Z,23.60
2022-10-06T02:33:05.058Z,23.70
2022-10-06T02:38:07.639Z,23.70
2022-10-06T02:43:11.594Z,23.60
2022-10-06T02:48:14.168Z,23.70
2022-10-06T02:53:16.788Z,23.70
2022-10-06T02:58:20.732Z,23.70
2022-10-06T03:03:23.331Z,23.70
2022-10-06T03:08:26.570Z,23.70
2022-10-06T03:13:31.210Z,23.60
2022-10-06T03:18:33.993Z,23.60
2022-10-06T03:23:36.621Z,23.70
2022-10-06T03:28:40.600Z,23.70
2022-10-06T03:33:43.253Z,23.60
2022-10-06T03:38:45.836Z,23.60
2022-10-06T03:43:50.684Z,23.60
2022-10-06T03:48:53.440Z,23.50
2022-10-06T03:53:56.378Z,23.20
2022-10-06T03:59:01.249Z,23.10
2022-10-06T04:04:04.390Z,23.10
2022-10-06T04:09:12.505Z,23.20
2022-10-06T04:14:18.105Z,23.00
2022-10-06T04:19:20.687Z,23.20
2022-10-06T04:24:23.277Z,23.50
2022-10-06T04:29:27.222Z,23.50
2022-10-06T04:34:30.988Z,23.50
2022-10-06T04:39:33.585Z,23.50
2022-10-06T04:44:37.755Z,23.60
2022-10-06T04:49:40.393Z,23.60
2022-10-06T04:54:42.987Z,23.50
2022-10-06T05:00:08.892Z,23.50
2022-10-06T05:05:13.930Z,23.50
2022-10-06T05:10:17.296Z,23.50
2022-10-06T05:15:21.270Z,23.50
2022-10-06T05:20:23.861Z,23.50
2022-10-06T05:25:26.448Z,23.50
2022-10-06T05:30:30.373Z,23.50
2022-10-06T05:35:32.959Z,23.50
2022-10-06T05:40:35.543Z,23.50
2022-10-06T05:45:39.536Z,23.60
2022-10-06T05:50:42.340Z,23.60
2022-10-06T05:55:44.974Z,23.50
2022-10-06T06:00:48.902Z,23.50
2022-10-06T06:05:51.618Z,23.50
2022-10-06T06:10:54.198Z,23.60
2022-10-06T06:16:01.578Z,23.50
2022-10-06T06:21:04.957Z,23.50
2022-10-06T06:26:08.412Z,23.50
2022-10-06T06:31:17.678Z,23.60
2022-10-06T06:36:25.011Z,23.50
2022-10-06T06:41:29.088Z,23.00
2022-10-06T06:46:33.250Z,22.70
2022-10-06T06:51:37.142Z,22.60
2022-10-06T06:56:40.121Z,22.90
2022-10-06T07:01:48.709Z,22.90
2022-10-06T07:06:58.629Z,22.80
2022-10-06T07:12:01.363Z,22.90
2022-10-06T07:17:22.742Z,22.90
2022-10-06T07:22:43.850Z,22.90
2022-10-06T07:27:47.613Z,22.90
2022-10-06T07:32:52.137Z,23.00
2022-10-06T07:37:54.821Z,23.00
2022-10-06T07:42:57.498Z,23.00
2022-10-06T07:48:02.237Z,23.10
2022-10-06T07:53:08.621Z,23.20
2022-10-06T07:58:12.163Z,23.20
2022-10-06T08:03:18.498Z,23.20
2022-10-06T08:08:21.276Z,23.40
2022-10-06T08:13:24.202Z,23.40
2022-10-06T08:18:45.375Z,23.60
2022-10-06T08:23:49.450Z,23.60
2022-10-06T08:28:53.224Z,23.60
2022-10-06T08:33:57.765Z,23.60
2022-10-06T08:39:00.612Z,23.60
2022-10-06T08:44:04.807Z,23.70
2022-10-06T08:49:12.731Z,23.50
2022-10-06T08:54:19.506Z,23.50
2022-10-06T08:59:22.437Z,23.60
2022-10-06T09:04:28.760Z,23.60
2022-10-06T09:09:43.902Z,23.90
2022-10-06T09:14:48.964Z,23.90
2022-10-06T09:19:55.770Z,23.90
2022-10-06T09:25:00.544Z,24.00
2022-10-06T09:30:04.533Z,24.00
2022-10-06T09:35:17.208Z,24.00
2022-10-06T09:40:29.417Z,23.90
2022-10-06T09:45:32.021Z,23.90
2022-10-06T09:50:36.053Z,23.90
2022-10-06T09:55:43.964Z,23.90
2022-10-06T10:00:48.472Z,23.90
2022-10-06T10:05:54.912Z,23.90
2022-10-06T10:11:32.081Z,23.90
2022-10-06T10:16:36.544Z,24.00
2022-10-06T10:21:41.822Z,24.00
2022-10-06T10:26:48.997Z,23.90
2022-10-06T10:31:56.932Z,24.00
2022-10-06T10:37:04.148Z,24.10
2022-10-06T10:42:11.020Z,24.10
2022-10-06T10:47:15.937Z,24.20
2022-10-06T10:52:22.117Z,24.20
2022-10-06T10:57:29.337Z,24.20
2022-10-06T11:02:33.239Z,24.30
2022-10-06T11:07:44.175Z,24.20
2022-10-06T11:12:54.467Z,24.40
2022-10-06T11:18:02.491Z,24.20
2022-10-06T11:23:18.540Z,24.20
2022-10-06T11:28:24.179Z,24.20
2022-10-06T11:33:28.473Z,24.30
2022-10-06T11:38:36.131Z,24.20
2022-10-06T11:43:42.074Z,24.20
2022-10-06T11:48:44.735Z,24.30
2022-10-06T11:53:48.726Z,24.40
2022-10-06T11:59:09.923Z,24.20
2022-10-06T12:04:14.305Z,24.30
2022-10-06T12:09:51.762Z,24.40
2022-10-06T12:17:05.084Z,24.40
2022-10-06T12:20:24.796Z,24.30
2022-10-06T12:25:29.022Z,24.30
2022-10-06T12:30:41.975Z,24.40
2022-10-06T12:35:44.990Z,24.30
2022-10-06T12:40:49.369Z,24.40
2022-10-06T12:45:57.604Z,24.50
2022-10-06T12:51:03.406Z,24.40
2022-10-06T12:56:06.912Z,24.50
2022-10-06T13:01:14.398Z,24.50
2022-10-06T13:06:20.935Z,24.50
2022-10-06T13:11:26.429Z,24.50
2022-10-06T13:16:32.259Z,24.50
2022-10-06T13:21:35.022Z,24.50
2022-10-06T13:26:37.658Z,24.60
2022-10-06T13:31:51.731Z,24.60
2022-10-06T13:36:56.222Z,24.60
2022-10-06T13:42:00.330Z,24.50
2022-10-06T13:47:05.771Z,24.50
2022-10-06T13:52:15.291Z,24.50
2022-10-06T13:57:38.653Z,24.70
2022-10-06T14:02:43.167Z,24.70
2022-10-06T14:07:45.914Z,24.70
2022-10-06T14:12:48.774Z,24.70
2022-10-06T14:17:55.818Z,24.80
2022-10-06T14:22:58.454Z,24.90
2022-10-06T14:28:01.104Z,24.80
2022-10-06T14:33:05.657Z,24.70
2022-10-06T14:38:08.388Z,24.80
2022-10-06T14:43:11.291Z,24.50
2022-10-06T14:48:16.194Z,24.30
2022-10-06T14:53:18.851Z,24.30
2022-10-06T14:58:21.573Z,24.40
2022-10-06T15:03:25.614Z,24.30
2022-10-06T15:08:28.439Z,24.30
2022-10-06T15:13:32.456Z,24.20
2022-10-06T15:18:40.697Z,24.30
2022-10-06T15:23:45.599Z,24.30
2022-10-06T15:29:03.676Z,24.30
2022-10-06T15:34:10.120Z,24.40
2022-10-06T15:39:16.149Z,24.50
2022-10-06T15:44:19.487Z,24.70
2022-10-06T15:49:24.612Z,24.70
2022-10-06T15:54:28.605Z,24.80
2022-10-06T15:59:32.747Z,24.90
2022-10-06T16:04:48.772Z,24.80
2022-10-06T16:09:52.451Z,24.90
2022-10-06T16:14:55.129Z,24.80
2022-10-06T16:19:59.092Z,24.90
2022-10-06T16:25:01.678Z,24.90
2022-10-06T16:30:05.051Z,24.80
2022-10-06T16:35:10.480Z,24.90
2022-10-06T16:40:17.589Z,24.90
2022-10-06T16:45:20.266Z,24.80
2022-10-06T16:50:24.203Z,24.80
2022-10-06T16:55:26.797Z,24.70
2022-10-06T17:00:29.465Z,24.70
2022-10-06T17:05:34.593Z,24.60
2022-10-06T17:10:37.250Z,24.60
2022-10-06T17:15:39.835Z,24.70
2022-10-06T17:20:43.787Z,24.60
2022-10-06T17:25:47.653Z,24.70
2022-10-06T17:30:53.585Z,24.60
2022-10-06T17:35:57.548Z,24.60
2022-10-06T17:41:00.134Z,24.50
2022-10-06T17:46:04.639Z,24.60
2022-10-06T17:51:08.667Z,24.60
2022-10-06T17:56:12.138Z,24.60
2022-10-06T18:01:17.378Z,24.50
2022-10-06T18:06:21.745Z,24.50
2022-10-06T18:11:35.727Z,24.50
2022-10-06T18:16:39.637Z,24.50
2022-10-06T18:21:44.596Z,24.50
2022-10-06T18:26:48.524Z,24.50
2022-10-06T18:31:52.151Z,24.60
2022-10-06T18:36:56.163Z,24.50
2022-10-06T18:41:59.029Z,24.50
2022-10-06T18:47:19.625Z,24.50
2022-10-06T18:52:23.545Z,24.50
2022-10-06T18:57:27.869Z,24.50
2022-10-06T19:02:32.221Z,24.40
2022-10-06T19:07:36.270Z,24.50
2022-10-06T19:12:38.961Z,24.50
2022-10-06T19:17:41.909Z,24.50
2022-10-06T19:22:47.203Z,24.50
2022-10-06T19:27:51.022Z,24.40
2022-10-06T19:32:54.898Z,24.40
2022-10-06T19:37:59.545Z,24.50
2022-10-06T19:43:02.136Z,24.50
2022-10-06T19:48:04.778Z,24.40
2022-10-06T19:53:08.749Z,24.40
2022-10-06T19:58:11.337Z,24.40
2022-10-06T20:03:13.997Z,24.40
2022-10-06T20:08:17.951Z,24.40
2022-10-06T20:13:20.661Z,24.40
2022-10-06T20:18:25.297Z,24.40
2022-10-06T20:23:29.268Z,24.50
2022-10-06T20:28:34.077Z,24.30
2022-10-06T20:33:36.818Z,24.40
2022-10-06T20:38:58.446Z,24.30
2022-10-06T20:44:01.861Z,24.30
2022-10-06T20:49:05.407Z,24.40
2022-10-06T20:54:09.772Z,24.30
2022-10-06T20:59:12.945Z,24.30
2022-10-06T21:04:16.304Z,24.30
2022-10-06T21:09:20.281Z,24.30
2022-10-06T21:14:22.861Z,24.30
2022-10-06T21:19:26.824Z,24.30
2022-10-06T21:24:30.744Z,24.30
2022-10-06T21:29:33.319Z,24.30
2022-10-06T21:34:35.888Z,24.30
2022-10-06T21:39:39.806Z,24.30
2022-10-06T21:44:42.388Z,24.30
2022-10-06T21:49:45.035Z,24.20
2022-10-06T21:54:48.980Z,24.30
2022-10-06T21:59:51.558Z,24.20
2022-10-06T22:04:54.171Z,24.30
2022-10-06T22:09:58.387Z,24.20
2022-10-06T22:15:00.973Z,24.20
2022-10-06T22:20:04.571Z,24.10
2022-10-06T22:25:08.672Z,24.30
2022-10-06T22:30:11.659Z,24.10
2022-10-06T22:35:14.405Z,24.10
2022-10-06T22:40:18.332Z,24.20
2022-10-06T22:45:21.361Z,24.20
2022-10-06T22:50:25.138Z,24.20
2022-10-06T22:55:30.239Z,24.10
2022-10-06T23:00:32.891Z,24.10
2022-10-06T23:05:35.720Z,24.10
2022-10-06T23:10:41.044Z,24.10
2022-10-06T23:15:44.383Z,24.10
2022-10-06T23:20:47.197Z,24.20
2022-10-06T23:25:51.234Z,24.20
2022-10-06T23:30:56.161Z,24.10
2022-10-06T23:35:59.280Z,24.10
2022-10-06T23:41:03.360Z,24.10
2022-10-06T23:46:06.273Z,24.10
2022-10-06T23:51:10.061Z,24.10
2022-10-06T23:56:14.047Z,24.10
